createdAt,value
2019-05-02T00:02:36.753Z,9.00
2019-05-02T00:05:27.399Z,8.90
2019-05-02T00:08:13.138Z,8.90
2019-05-02T00:11:00.308Z,9.00
2019-05-02T00:13:48.039Z,8.90
2019-05-02T00:16:35.608Z,9.00
2019-05-02T00:19:22.787Z,9.00
2019-05-02T00:22:12.299Z,8.90
2019-05-02T00:24:59.479Z,8.90
2019-05-02T00:27:46.692Z,9.00
2019-05-02T00:30:34.688Z,9.00
2019-05-02T00:33:22.964Z,9.10
2019-05-02T00:36:10.363Z,9.00
2019-05-02T00:38:57.533Z,9.00
2019-05-02T00:41:44.765Z,9.10
2019-05-02T00:44:32.364Z,9.10
2019-05-02T00:47:33.437Z,9.10
2019-05-02T00:50:21.660Z,9.20
2019-05-02T00:53:12.038Z,9.20
2019-05-02T00:55:58.025Z,9.30
2019-05-02T00:58:45.520Z,9.40
2019-05-02T01:01:46.684Z,9.50
2019-05-02T01:04:35.756Z,9.50
2019-05-02T01:07:25.566Z,9.50
2019-05-02T01:10:12.325Z,9.50
2019-05-02T01:12:59.529Z,9.60
2019-05-02T01:15:46.723Z,9.60
2019-05-02T01:18:37.108Z,9.60
2019-05-02T01:21:23.367Z,9.70
2019-05-02T01:24:10.609Z,9.70
2019-05-02T01:27:06.530Z,9.70
2019-05-02T01:30:01.641Z,9.80
2019-05-02T01:32:49.053Z,9.80
2019-05-02T01:35:40.959Z,9.90
2019-05-02T01:38:33.801Z,9.90
2019-05-02T01:41:24.122Z,9.90
2019-05-02T01:44:09.536Z,9.90
2019-05-02T01:46:58.895Z,9.80
2019-05-02T01:49:45.941Z,9.90
2019-05-02T01:52:33.107Z,9.90
2019-05-02T01:55:21.123Z,9.90
2019-05-02T01:58:09.869Z,9.90
2019-05-02T02:00:57.142Z,9.90
2019-05-02T02:03:45.585Z,9.80
2019-05-02T02:06:32.163Z,9.80
2019-05-02T02:09:19.713Z,9.80
2019-05-02T02:12:09.775Z,9.80
2019-05-02T02:14:55.665Z,9.80
2019-05-02T02:17:46.830Z,9.70
2019-05-02T02:20:33.506Z,9.70
2019-05-02T02:23:28.468Z,9.70
2019-05-02T02:26:25.730Z,9.70
2019-05-02T02:29:13.180Z,9.70
2019-05-02T02:32:00.770Z,9.60
2019-05-02T02:34:48.169Z,9.50
2019-05-02T02:37:35.695Z,9.50
2019-05-02T02:40:32.580Z,9.50
2019-05-02T02:43:32.184Z,9.60
2019-05-02T02:46:04.106Z,9.50
2019-05-02T02:48:51.290Z,9.40
2019-05-02T02:51:37.352Z,9.50
2019-05-02T02:54:24.670Z,9.30
2019-05-02T02:57:20.551Z,9.30
2019-05-02T03:00:07.885Z,9.20
2019-05-02T03:02:50.109Z,9.20
2019-05-02T03:05:37.975Z,9.20
2019-05-02T03:08:25.979Z,9.10
2019-05-02T03:11:22.344Z,9.00
2019-05-02T03:14:07.481Z,9.00
2019-05-02T03:16:53.837Z,9.00
2019-05-02T03:19:41.637Z,8.90
2019-05-02T03:22:34.861Z,9.00
2019-05-02T03:25:25.003Z,8.80
2019-05-02T03:28:17.333Z,8.80
2019-05-02T03:30:56.101Z,8.80
2019-05-02T03:33:54.417Z,8.70
2019-05-02T03:36:36.059Z,8.70
2019-05-02T03:39:22.439Z,8.50
2019-05-02T03:42:09.970Z,8.60
2019-05-02T03:45:03.816Z,8.60
2019-05-02T03:47:46.573Z,8.60
2019-05-02T03:50:35.376Z,8.50
2019-05-02T03:53:25.238Z,8.50
2019-05-02T03:56:14.086Z,8.50
2019-05-02T03:59:00.596Z,8.60
2019-05-02T04:01:48.384Z,8.70
2019-05-02T04:04:35.497Z,8.80
2019-05-02T04:07:23.321Z,8.70
2019-05-02T04:10:13.386Z,8.60
2019-05-02T04:13:00.427Z,8.70
2019-05-02T04:15:47.525Z,8.80
2019-05-02T04:18:34.693Z,8.80
2019-05-02T04:21:25.901Z,8.80
2019-05-02T04:24:15.764Z,8.80
2019-05-02T04:27:01.020Z,8.80
2019-05-02T04:29:48.169Z,8.80
2019-05-02T04:32:35.508Z,8.80
2019-05-02T04:35:28.736Z,8.90
2019-05-02T04:38:20.006Z,9.00
2019-05-02T04:41:00.353Z,8.90
2019-05-02T04:43:57.404Z,8.90
2019-05-02T04:46:38.807Z,8.90
2019-05-02T04:49:29.976Z,9.00
2019-05-02T04:52:17.171Z,9.00
2019-05-02T04:55:14.630Z,8.80
2019-05-02T04:57:53.208Z,8.80
2019-05-02T05:00:45.126Z,8.90
2019-05-02T05:03:29.574Z,9.00
2019-05-02T05:06:18.916Z,9.10
2019-05-02T05:09:10.397Z,9.10
2019-05-02T05:12:00.886Z,9.20
2019-05-02T05:14:44.460Z,9.20
2019-05-02T05:17:34.040Z,9.20
2019-05-02T05:20:19.345Z,9.30
2019-05-02T05:23:08.251Z,9.30
2019-05-02T05:26:03.426Z,9.40
2019-05-02T05:28:47.659Z,9.50
2019-05-02T05:31:35.131Z,9.60
2019-05-02T05:34:22.798Z,9.70
2019-05-02T05:37:13.480Z,9.90
2019-05-02T05:39:59.853Z,10.00
2019-05-02T05:42:48.109Z,10.20
2019-05-02T05:45:48.636Z,10.30
2019-05-02T05:48:24.390Z,10.40
2019-05-02T05:51:11.875Z,10.50
2019-05-02T05:54:03.002Z,10.70
2019-05-02T05:56:48.290Z,10.90
2019-05-02T05:59:37.806Z,11.10
2019-05-02T06:02:24.350Z,11.30
2019-05-02T06:05:11.758Z,11.50
2019-05-02T06:07:58.998Z,11.60
2019-05-02T06:10:46.441Z,11.80
2019-05-02T06:13:33.829Z,12.00
2019-05-02T06:16:21.220Z,12.10
2019-05-02T06:19:13.046Z,12.30
2019-05-02T06:21:57.665Z,12.50
2019-05-02T06:24:46.120Z,12.60
2019-05-02T06:27:32.794Z,12.70
2019-05-02T06:30:20.208Z,12.90
2019-05-02T06:33:07.176Z,13.00
2019-05-02T06:36:01.122Z,13.20
2019-05-02T06:38:43.057Z,13.30
2019-05-02T06:41:30.733Z,13.50
2019-05-02T06:44:18.422Z,13.60
2019-05-02T06:47:06.843Z,13.70
2019-05-02T06:49:56.145Z,13.80
2019-05-02T06:52:42.838Z,13.80
2019-05-02T06:55:36.158Z,13.80
2019-05-02T06:58:18.360Z,13.90
2019-05-02T07:01:05.858Z,14.10
2019-05-02T07:03:53.241Z,14.20
2019-05-02T07:06:56.187Z,14.30
2019-05-02T07:09:40.307Z,14.40
2019-05-02T07:12:18.497Z,14.70
2019-05-02T07:15:28.144Z,14.90
2019-05-02T07:18:25.468Z,15.00
2019-05-02T07:21:12.096Z,15.10
2019-05-02T07:23:59.720Z,15.30
2019-05-02T07:26:52.078Z,15.40
2019-05-02T07:29:36.892Z,15.40
2019-05-02T07:32:25.158Z,15.20
2019-05-02T07:35:13.044Z,15.40
2019-05-02T07:38:00.300Z,15.40
2019-05-02T07:40:48.148Z,15.60
2019-05-02T07:43:35.449Z,15.60
2019-05-02T07:46:22.662Z,15.80
2019-05-02T07:49:10.105Z,16.00
2019-05-02T07:51:58.921Z,16.30
2019-05-02T07:54:46.454Z,16.70
2019-05-02T07:57:33.820Z,17.10
2019-05-02T08:00:21.432Z,17.30
2019-05-02T08:03:08.719Z,17.60
2019-05-02T08:05:58.537Z,17.90
2019-05-02T08:08:46.169Z,18.40
2019-05-02T08:11:37.234Z,18.70
2019-05-02T08:14:22.011Z,19.10
2019-05-02T08:17:16.159Z,19.50
2019-05-02T08:19:58.408Z,19.80
2019-05-02T08:22:49.027Z,19.40
2019-05-02T08:25:34.449Z,19.10
2019-05-02T08:28:39.791Z,18.70
2019-05-02T08:31:30.044Z,18.70
2019-05-02T08:34:17.939Z,19.00
2019-05-02T08:37:05.286Z,19.10
2019-05-02T08:39:52.687Z,19.20
2019-05-02T08:42:39.862Z,19.10
2019-05-02T08:45:27.399Z,19.20
2019-05-02T08:48:14.507Z,19.40
2019-05-02T08:51:01.953Z,19.50
2019-05-02T08:53:52.119Z,19.80
2019-05-02T08:56:38.626Z,19.90
2019-05-02T08:59:26.197Z,19.90
2019-05-02T09:02:13.634Z,20.00
2019-05-02T09:05:04.647Z,19.70
2019-05-02T09:07:49.585Z,19.60
2019-05-02T09:10:41.605Z,19.10
2019-05-02T09:13:29.118Z,18.90
2019-05-02T09:16:14.673Z,19.10
2019-05-02T09:19:02.747Z,19.20
2019-05-02T09:21:52.567Z,19.20
2019-05-02T09:24:42.353Z,19.60
2019-05-02T09:27:28.099Z,19.70
2019-05-02T09:30:17.151Z,19.80
2019-05-02T09:33:06.599Z,20.20
2019-05-02T09:35:53.330Z,20.30
2019-05-02T09:38:42.352Z,20.60
2019-05-02T09:41:34.432Z,20.60
2019-05-02T09:44:18.827Z,20.30
2019-05-02T09:47:06.216Z,19.70
2019-05-02T09:50:12.830Z,20.00
2019-05-02T09:53:01.955Z,20.00
2019-05-02T09:55:53.505Z,19.90
2019-05-02T09:58:38.353Z,19.90
2019-05-02T10:01:31.706Z,20.20
2019-05-02T10:04:18.672Z,20.10
2019-05-02T10:07:06.061Z,20.20
2019-05-02T10:09:53.129Z,20.40
2019-05-02T10:12:42.590Z,20.80
2019-05-02T10:15:29.393Z,21.40
2019-05-02T10:18:19.636Z,21.80
2019-05-02T10:21:07.728Z,21.70
2019-05-02T10:23:59.413Z,21.40
2019-05-02T10:26:43.085Z,21.70
2019-05-02T10:29:32.724Z,21.60
2019-05-02T10:32:19.409Z,21.70
2019-05-02T10:35:09.093Z,21.70
2019-05-02T10:37:56.593Z,21.80
2019-05-02T10:40:43.685Z,22.10
2019-05-02T10:43:32.764Z,22.30
2019-05-02T10:46:37.875Z,22.50
2019-05-02T10:49:31.928Z,21.60
2019-05-02T10:52:21.619Z,22.00
2019-05-02T10:55:07.633Z,21.90
2019-05-02T10:57:54.969Z,21.60
2019-05-02T11:00:45.229Z,21.70
2019-05-02T11:03:32.788Z,21.60
2019-05-02T11:06:22.078Z,21.70
2019-05-02T11:09:12.096Z,21.70
2019-05-02T11:12:02.445Z,22.00
2019-05-02T11:14:51.662Z,21.70
2019-05-02T11:17:43.652Z,22.30
2019-05-02T11:20:31.870Z,22.20
2019-05-02T11:23:19.169Z,22.70
2019-05-02T11:26:06.428Z,22.90
2019-05-02T11:28:53.526Z,23.10
2019-05-02T11:31:42.772Z,22.60
2019-05-02T11:34:29.681Z,22.70
2019-05-02T11:37:16.497Z,22.90
2019-05-02T11:40:07.050Z,23.20
2019-05-02T11:42:57.263Z,23.20
2019-05-02T11:45:44.091Z,23.10
2019-05-02T11:48:32.019Z,23.40
2019-05-02T11:51:19.306Z,23.30
2019-05-02T11:54:09.351Z,23.20
2019-05-02T11:56:55.310Z,23.00
2019-05-02T11:59:42.571Z,23.40
2019-05-02T12:02:32.001Z,23.40
2019-05-02T12:05:22.205Z,23.40
2019-05-02T12:08:12.070Z,23.40
2019-05-02T12:11:01.238Z,23.60
2019-05-02T12:13:51.610Z,23.90
2019-05-02T12:16:36.095Z,24.20
2019-05-02T12:19:23.217Z,24.40
2019-05-02T12:22:12.905Z,24.20
2019-05-02T12:24:59.549Z,24.10
2019-05-02T12:27:46.569Z,24.50
2019-05-02T12:30:37.678Z,24.70
2019-05-02T12:33:24.274Z,24.50
2019-05-02T12:36:12.042Z,25.00
2019-05-02T12:38:59.476Z,24.80
2019-05-02T12:41:46.780Z,25.20
2019-05-02T12:44:33.912Z,25.70
2019-05-02T12:47:22.541Z,25.70
2019-05-02T12:50:09.627Z,25.70
2019-05-02T12:52:56.484Z,25.20
2019-05-02T12:55:43.984Z,24.80
2019-05-02T12:58:32.567Z,24.80
2019-05-02T13:01:21.655Z,24.50
2019-05-02T13:04:12.271Z,24.50
2019-05-02T13:06:58.953Z,24.10
2019-05-02T13:09:46.547Z,23.50
2019-05-02T13:12:35.511Z,23.50
2019-05-02T13:15:23.573Z,23.20
2019-05-02T13:18:12.466Z,23.60
2019-05-02T13:21:02.265Z,24.40
2019-05-02T13:23:57.019Z,23.80
2019-05-02T13:26:44.071Z,24.50
2019-05-02T13:29:32.187Z,25.20
2019-05-02T13:32:21.803Z,24.90
2019-05-02T13:35:14.567Z,24.50
2019-05-02T13:38:02.919Z,24.30
2019-05-02T13:40:51.742Z,25.00
2019-05-02T13:43:41.878Z,26.70
2019-05-02T13:46:29.550Z,27.00
2019-05-02T13:49:16.326Z,26.10
2019-05-02T13:52:03.638Z,25.30
2019-05-02T13:54:52.257Z,24.50
2019-05-02T13:57:45.343Z,24.70
2019-05-02T14:00:46.444Z,24.40
2019-05-02T14:03:33.282Z,24.80
2019-05-02T14:06:22.044Z,24.10
2019-05-02T14:09:19.845Z,24.50
2019-05-02T14:12:15.757Z,25.20
2019-05-02T14:15:03.207Z,27.00
2019-05-02T14:17:52.361Z,28.70
2019-05-02T14:20:39.205Z,29.50
2019-05-02T14:23:26.978Z,29.90
2019-05-02T14:26:27.225Z,30.00
2019-05-02T14:29:02.646Z,29.00
2019-05-02T14:31:51.800Z,28.40
2019-05-02T14:34:49.388Z,28.90
2019-05-02T14:37:36.605Z,27.60
2019-05-02T14:40:25.792Z,27.30
2019-05-02T14:43:14.643Z,29.00
2019-05-02T14:46:02.896Z,29.90
2019-05-02T14:48:52.327Z,29.00
2019-05-02T14:51:41.644Z,27.80
2019-05-02T14:54:28.541Z,29.30
2019-05-02T14:57:22.052Z,28.90
2019-05-02T15:00:09.051Z,29.70
2019-05-02T15:02:55.937Z,29.90
2019-05-02T15:05:42.767Z,30.00
2019-05-02T15:08:32.115Z,29.70
2019-05-02T15:11:18.552Z,30.50
2019-05-02T15:14:05.852Z,30.60
2019-05-02T15:16:56.609Z,30.80
2019-05-02T15:19:42.744Z,31.20
2019-05-02T15:22:33.139Z,31.40
2019-05-02T15:25:18.672Z,30.30
2019-05-02T15:28:07.697Z,30.80
2019-05-02T15:31:08.724Z,30.20
2019-05-02T15:34:06.474Z,29.10
2019-05-02T15:36:53.936Z,28.40
2019-05-02T15:42:29.817Z,28.60
2019-05-02T15:45:17.222Z,28.80
2019-05-02T15:48:04.816Z,28.20
2019-05-02T15:50:55.345Z,28.00
2019-05-02T15:54:05.331Z,27.10
2019-05-02T15:57:00.164Z,26.00
2019-05-02T15:59:44.780Z,25.50
2019-05-02T16:02:32.082Z,25.00
2019-05-02T16:05:21.664Z,24.40
2019-05-02T16:08:09.106Z,24.20
2019-05-02T16:10:56.297Z,24.10
2019-05-02T16:13:46.986Z,24.60
2019-05-02T16:16:36.558Z,25.20
2019-05-02T16:19:28.825Z,24.60
2019-05-02T16:22:18.614Z,24.40
2019-05-02T16:25:07.251Z,24.00
2019-05-02T16:27:57.417Z,23.60
2019-05-02T16:30:47.635Z,23.40
2019-05-02T16:33:33.511Z,23.00
2019-05-02T16:36:26.038Z,22.70
2019-05-02T16:39:11.211Z,22.60
2019-05-02T16:41:58.859Z,22.50
2019-05-02T16:44:45.838Z,22.70
2019-05-02T16:47:33.187Z,22.70
2019-05-02T16:50:22.719Z,22.60
2019-05-02T16:53:09.397Z,22.20
2019-05-02T16:55:58.277Z,22.10
2019-05-02T16:58:47.059Z,21.80
2019-05-02T17:01:34.445Z,21.40
2019-05-02T17:04:22.352Z,21.20
2019-05-02T17:07:11.658Z,21.10
2019-05-02T17:10:03.137Z,21.00
2019-05-02T17:12:56.603Z,20.80
2019-05-02T17:15:42.794Z,20.90
2019-05-02T17:18:30.278Z,20.80
2019-05-02T17:21:17.150Z,20.40
2019-05-02T17:24:04.733Z,20.30
2019-05-02T17:26:51.964Z,20.00
2019-05-02T17:29:40.995Z,19.90
2019-05-02T17:32:28.829Z,19.50
2019-05-02T17:35:16.378Z,19.50
2019-05-02T17:38:06.078Z,19.50
2019-05-02T17:41:04.714Z,19.50
2019-05-02T17:43:49.041Z,19.30
2019-05-02T17:46:36.736Z,19.30
2019-05-02T17:49:34.900Z,19.30
2019-05-02T17:52:26.792Z,19.20
2019-05-02T17:55:12.084Z,19.20
2019-05-02T17:57:59.292Z,19.00
2019-05-02T18:00:54.537Z,19.00
2019-05-02T18:03:36.567Z,18.90
2019-05-02T18:06:32.463Z,18.80
2019-05-02T18:09:15.476Z,18.70
2019-05-02T18:12:01.615Z,18.60
2019-05-02T18:14:53.126Z,18.60
2019-05-02T18:17:37.536Z,18.60
2019-05-02T18:20:28.557Z,18.60
2019-05-02T18:23:18.782Z,18.50
2019-05-02T18:26:06.416Z,18.30
2019-05-02T18:28:57.219Z,18.10
2019-05-02T18:31:47.281Z,18.00
2019-05-02T18:34:32.032Z,18.00
2019-05-02T18:37:19.166Z,17.90
2019-05-02T18:40:07.324Z,17.80
2019-05-02T18:42:56.615Z,17.80
2019-05-02T18:45:43.036Z,17.60
2019-05-02T18:48:31.883Z,17.60
2019-05-02T18:51:19.262Z,17.50
2019-05-02T18:54:07.671Z,17.40
2019-05-02T18:56:55.597Z,17.40
2019-05-02T18:59:42.838Z,17.30
2019-05-02T19:02:32.775Z,17.30
2019-05-02T19:05:21.145Z,17.20
2019-05-02T19:08:08.728Z,17.10
2019-05-02T19:11:05.919Z,17.00
2019-05-02T19:13:48.017Z,17.00
2019-05-02T19:16:38.063Z,17.00
2019-05-02T19:19:27.401Z,16.70
2019-05-02T19:22:17.529Z,16.40
2019-05-02T19:25:06.318Z,16.10
2019-05-02T19:28:04.028Z,15.90
2019-05-02T19:30:51.990Z,15.70
2019-05-02T19:33:42.727Z,15.50
2019-05-02T19:36:29.372Z,15.40
2019-05-02T19:39:16.996Z,15.30
2019-05-02T19:42:04.307Z,15.20
2019-05-02T19:44:52.790Z,15.00
2019-05-02T19:47:56.473Z,14.90
2019-05-02T19:50:44.060Z,14.80
2019-05-02T19:53:33.893Z,14.80
2019-05-02T19:56:21.959Z,14.80
2019-05-02T19:59:09.697Z,14.90
2019-05-02T20:02:02.521Z,14.80
2019-05-02T20:04:47.649Z,14.80
2019-05-02T20:07:34.759Z,14.60
2019-05-02T20:10:22.751Z,14.60
2019-05-02T20:13:11.989Z,14.70
2019-05-02T20:16:05.784Z,14.70
2019-05-02T20:18:53.012Z,14.60
2019-05-02T20:21:57.189Z,14.70
2019-05-02T20:24:58.318Z,14.60
2019-05-02T20:27:42.439Z,14.60
2019-05-02T20:30:29.697Z,14.50
2019-05-02T20:33:18.785Z,14.50
2019-05-02T20:36:08.124Z,14.40
2019-05-02T20:39:02.305Z,14.40
2019-05-02T20:41:50.353Z,14.40
2019-05-02T20:44:37.530Z,14.40
2019-05-02T20:47:26.553Z,14.40
2019-05-02T20:50:15.930Z,14.40
2019-05-02T20:53:03.973Z,14.40
2019-05-02T20:55:52.394Z,14.30
2019-05-02T20:58:41.824Z,14.20
2019-05-02T21:01:29.390Z,14.30
2019-05-02T21:04:16.941Z,14.40
2019-05-02T21:07:07.080Z,14.30
2019-05-02T21:10:12.540Z,14.30
2019-05-02T21:13:01.957Z,14.30
2019-05-02T21:15:48.681Z,14.10
2019-05-02T21:18:35.931Z,14.10
2019-05-02T21:21:25.189Z,14.00
2019-05-02T21:24:12.500Z,14.00
2019-05-02T21:27:04.348Z,14.00
2019-05-02T21:29:53.805Z,13.90
2019-05-02T21:32:42.635Z,13.90
2019-05-02T21:35:34.304Z,13.80
2019-05-02T21:38:22.585Z,13.80
2019-05-02T21:41:11.430Z,13.80
2019-05-02T21:43:58.963Z,13.80
2019-05-02T21:46:49.107Z,13.80
2019-05-02T21:49:45.402Z,13.90
2019-05-02T21:52:42.285Z,14.00
2019-05-02T21:55:32.338Z,14.00
2019-05-02T21:58:21.536Z,14.10
2019-05-02T22:01:12.749Z,14.20
2019-05-02T22:03:59.684Z,14.20
2019-05-02T22:06:47.058Z,14.10
2019-05-02T22:09:34.421Z,14.00
2019-05-02T22:12:22.567Z,14.00
2019-05-02T22:15:12.766Z,14.00
2019-05-02T22:18:01.620Z,14.10
2019-05-02T22:20:48.881Z,14.20
2019-05-02T22:23:36.246Z,14.20
2019-05-02T22:26:23.632Z,14.30
2019-05-02T22:29:12.318Z,14.30
2019-05-02T22:32:00.037Z,14.30
2019-05-02T22:34:46.917Z,14.30
2019-05-02T22:37:34.126Z,14.30
2019-05-02T22:40:21.818Z,14.30
2019-05-02T22:43:08.790Z,14.30
2019-05-02T22:45:55.948Z,14.20
2019-05-02T22:48:42.330Z,14.30
2019-05-02T22:51:29.393Z,14.30
2019-05-02T22:54:26.806Z,14.30
2019-05-02T22:57:04.418Z,14.20
2019-05-02T22:59:52.167Z,14.20
2019-05-02T23:02:39.410Z,14.20
2019-05-02T23:05:26.995Z,14.20
2019-05-02T23:08:14.397Z,14.10
2019-05-02T23:11:03.408Z,14.00
2019-05-02T23:13:51.776Z,13.90
2019-05-02T23:16:39.306Z,13.70
2019-05-02T23:19:26.606Z,13.80
2019-05-02T23:22:12.889Z,13.80
2019-05-02T23:25:04.209Z,13.80
2019-05-02T23:27:53.286Z,13.70
2019-05-02T23:30:42.340Z,13.80
2019-05-02T23:33:51.470Z,13.70
2019-05-02T23:36:41.626Z,13.70
2019-05-02T23:39:29.038Z,13.70
2019-05-02T23:42:16.403Z,13.70
2019-05-02T23:45:02.873Z,13.70
2019-05-02T23:47:52.408Z,13.80
2019-05-02T23:50:39.524Z,13.80
2019-05-02T23:53:31.575Z,13.80
2019-05-02T23:56:18.455Z,13.80
2019-05-02T23:59:04.568Z,13.70
